This is the latest recevied weather packets stored in our database for station/object YO3FVR-13. If no packets are shown the sender has not sent any weather packets the latest 10 day(s).
| Time | Temp. | Humidity | Pressure | Rain* | Wind** | Luminosity | Snow |
|---|---|---|---|---|---|---|---|
| 1778228962 | 19.44° C | 74% | 1013.2 hPa | 0 mm | - | - | - |
| 1778228032 | 20° C | 71% | 1013.3 hPa | 0 mm | - | - | - |
| 1778227132 | 19.44° C | 74% | 1013.5 hPa | 0 mm | - | - | - |
| 1778226202 | 18.33° C | 76% | 1013.4 hPa | 0 mm | - | - | - |
| 1778225302 | 18.33° C | 76% | 1013.6 hPa | 0 mm | - | - | - |
| 1778224402 | 18.89° C | 77% | 1013.4 hPa | 0 mm | - | - | - |
| 1778223502 | 18.89° C | 74% | 1013.6 hPa | 0 mm | - | - | - |
| 1778222602 | 18.89° C | 76% | 1013.4 hPa | 0 mm | - | - | - |
| 1778221702 | 18.33° C | 80% | 1013 hPa | 0 mm | - | - | - |
| 1778220802 | 15° C | 96% | 1013.3 hPa | 0 mm | - | - | - |
| 1778219872 | 15° C | 99% | 1013.4 hPa | 0 mm | - | - | - |
| 1778218972 | 15° C | 99% | 1013.2 hPa | 0 mm | - | - | - |
| 1778218072 | 13.89° C | 99% | 1013.3 hPa | 0 mm | - | - | - |
| 1778217172 | 13.33° C | 99% | 1013.4 hPa | 0 mm | - | - | - |
| 1778216272 | 12.78° C | 99% | 1013.4 hPa | 0 mm | - | - | - |
| 1778215342 | 13.33° C | 99% | 1013.1 hPa | 0 mm | - | - | - |
| 1778214442 | 13.33° C | 99% | 1013.1 hPa | 0 mm | - | - | - |
| 1778213512 | 12.78° C | 99% | 1012.9 hPa | 0 mm | - | - | - |
| 1778212582 | 12.78° C | 99% | 1012.7 hPa | 0 mm | - | - | - |
| 1778211682 | 12.78° C | 99% | 1012.7 hPa | 0 mm | - | - | - |
| 1778210752 | 12.78° C | 99% | 1012.6 hPa | 0 mm | - | - | - |
| 1778209852 | 12.22° C | 99% | 1012.5 hPa | 0 mm | - | - | - |
| 1778208922 | 12.22° C | 99% | 1012.4 hPa | 0 mm | - | - | - |
| 1778208022 | 12.22° C | 99% | 1012.3 hPa | 0 mm | - | - | - |
| 1778207092 | 12.78° C | 99% | 1012.3 hPa | 0 mm | - | - | - |
* Rain latest hour (hover to see other rain measurements)
** Current wind speed in m/s (hover to see current wind gust speed)